createdAt,value
2023-03-15T00:00:53.693Z,2.70
2023-03-15T00:03:26.478Z,2.60
2023-03-15T00:06:01.199Z,2.60
2023-03-15T00:08:33.922Z,2.60
2023-03-15T00:11:07.226Z,2.60
2023-03-15T00:13:39.877Z,2.60
2023-03-15T00:16:17.292Z,2.60
2023-03-15T00:18:50.357Z,2.60
2023-03-15T00:21:23.378Z,2.70
2023-03-15T00:23:57.026Z,2.60
2023-03-15T00:26:29.694Z,2.60
2023-03-15T00:29:02.506Z,2.60
2023-03-15T00:31:35.854Z,2.60
2023-03-15T00:34:08.614Z,2.60
2023-03-15T00:36:43.540Z,2.60
2023-03-15T00:39:16.349Z,2.50
2023-03-15T00:41:49.076Z,2.40
2023-03-15T00:44:21.781Z,2.50
2023-03-15T00:46:54.517Z,2.50
2023-03-15T00:49:27.294Z,2.50
2023-03-15T00:51:59.937Z,2.50
2023-03-15T00:54:33.458Z,2.40
2023-03-15T00:57:06.283Z,2.50
2023-03-15T00:59:39.023Z,2.50
2023-03-15T01:02:13.990Z,2.50
2023-03-15T01:04:46.669Z,2.50
2023-03-15T01:07:19.392Z,2.50
2023-03-15T01:09:52.105Z,2.50
2023-03-15T01:12:25.066Z,2.40
2023-03-15T01:14:57.989Z,2.40
2023-03-15T01:17:30.872Z,2.40
2023-03-15T01:20:05.651Z,2.40
2023-03-15T01:22:38.388Z,2.40
2023-03-15T01:25:11.128Z,2.40
2023-03-15T01:27:43.917Z,2.40
2023-03-15T01:30:16.790Z,2.40
2023-03-15T01:32:49.543Z,2.30
2023-03-15T01:35:22.302Z,2.30
2023-03-15T01:37:55.087Z,2.30
2023-03-15T01:40:27.825Z,2.30
2023-03-15T01:43:03.787Z,2.30
2023-03-15T01:46:01.545Z,2.30
2023-03-15T01:48:39.140Z,2.30
2023-03-15T01:51:35.159Z,2.30
2023-03-15T01:54:10.697Z,2.30
2023-03-15T01:56:52.554Z,2.30
2023-03-15T01:59:32.750Z,2.30
2023-03-15T02:02:06.220Z,2.30
2023-03-15T02:04:46.501Z,2.30
2023-03-15T02:07:22.543Z,2.30
2023-03-15T02:10:05.578Z,2.30
2023-03-15T02:12:48.016Z,2.30
2023-03-15T02:15:21.034Z,2.40
2023-03-15T02:17:54.383Z,2.40
2023-03-15T02:20:51.752Z,2.40
2023-03-15T02:23:24.724Z,2.40
2023-03-15T02:26:18.727Z,2.40
2023-03-15T02:28:53.707Z,2.50
2023-03-15T02:31:27.238Z,2.50
2023-03-15T02:34:03.932Z,2.40
2023-03-15T02:36:37.426Z,2.40
2023-03-15T02:39:19.794Z,2.50
2023-03-15T02:42:01.913Z,2.50
2023-03-15T02:44:38.933Z,2.50
2023-03-15T02:47:25.272Z,2.40
2023-03-15T02:49:58.590Z,2.40
2023-03-15T02:52:31.252Z,2.50
2023-03-15T02:55:04.440Z,2.50
2023-03-15T02:57:38.176Z,2.50
2023-03-15T03:00:14.145Z,2.50
2023-03-15T03:02:48.495Z,2.50
2023-03-15T03:05:21.832Z,2.50
2023-03-15T03:07:55.052Z,2.50
2023-03-15T03:10:28.543Z,2.50
2023-03-15T03:13:03.833Z,2.50
2023-03-15T03:15:40.423Z,2.50
2023-03-15T03:18:13.148Z,2.50
2023-03-15T03:20:46.015Z,2.50
2023-03-15T03:23:18.700Z,2.40
2023-03-15T03:25:55.881Z,2.40
2023-03-15T03:28:30.955Z,2.40
2023-03-15T03:31:04.795Z,2.30
2023-03-15T03:33:38.763Z,2.30
2023-03-15T03:36:12.998Z,2.30
2023-03-15T03:38:47.018Z,2.30
2023-03-15T03:41:21.230Z,2.30
2023-03-15T03:43:54.046Z,2.40
2023-03-15T03:46:28.987Z,2.30
2023-03-15T03:49:02.072Z,2.30
2023-03-15T03:51:34.910Z,2.20
2023-03-15T03:54:07.579Z,2.30
2023-03-15T03:56:40.424Z,2.30
2023-03-15T03:59:14.887Z,2.30
2023-03-15T04:02:03.890Z,2.30
2023-03-15T04:04:37.275Z,2.30
2023-03-15T04:07:11.138Z,2.40
2023-03-15T04:09:46.521Z,2.40
2023-03-15T04:12:19.890Z,2.40
2023-03-15T04:14:53.668Z,2.40
2023-03-15T04:17:28.040Z,2.40
2023-03-15T04:20:06.726Z,2.40
2023-03-15T04:22:42.305Z,2.40
2023-03-15T04:25:27.840Z,2.40
2023-03-15T04:28:18.375Z,2.50
2023-03-15T04:31:10.339Z,2.50
2023-03-15T04:34:02.168Z,2.40
2023-03-15T04:36:54.621Z,2.40
2023-03-15T04:39:45.045Z,2.50
2023-03-15T04:42:36.426Z,2.50
2023-03-15T04:45:17.171Z,2.50
2023-03-15T04:48:10.803Z,2.50
2023-03-15T04:50:58.368Z,2.60
2023-03-15T04:53:57.247Z,2.70
2023-03-15T04:56:45.443Z,2.70
2023-03-15T04:59:36.708Z,2.80
2023-03-15T05:02:40.000Z,2.80
2023-03-15T05:05:23.679Z,2.90
2023-03-15T05:08:06.530Z,2.90
2023-03-15T05:10:49.922Z,2.90
2023-03-15T05:13:41.213Z,2.90
2023-03-15T05:16:31.932Z,2.90
2023-03-15T05:19:23.360Z,2.90
2023-03-15T05:22:11.833Z,2.90
2023-03-15T05:25:03.588Z,2.80
2023-03-15T05:27:46.436Z,2.80
2023-03-15T05:30:37.857Z,2.80
2023-03-15T05:33:36.990Z,2.80
2023-03-15T05:36:19.088Z,2.80
2023-03-15T05:39:16.646Z,2.80
2023-03-15T05:42:07.785Z,2.90
2023-03-15T05:44:53.159Z,2.90
2023-03-15T05:47:42.862Z,2.80
2023-03-15T05:50:34.433Z,2.80
2023-03-15T05:53:33.783Z,2.80
2023-03-15T05:56:26.673Z,2.80
2023-03-15T05:59:22.667Z,2.80
2023-03-15T06:02:24.452Z,2.80
2023-03-15T06:05:18.377Z,2.90
2023-03-15T06:07:52.144Z,2.80
2023-03-15T06:10:26.234Z,2.90
2023-03-15T06:13:04.616Z,2.90
2023-03-15T06:15:44.802Z,2.90
2023-03-15T06:18:29.144Z,2.90
2023-03-15T06:21:05.142Z,2.90
2023-03-15T06:23:43.887Z,2.90
2023-03-15T06:26:20.427Z,2.90
2023-03-15T06:28:55.240Z,2.80
2023-03-15T06:31:31.964Z,2.90
2023-03-15T06:34:16.681Z,2.90
2023-03-15T06:36:49.846Z,2.90
2023-03-15T06:39:23.870Z,3.00
2023-03-15T06:41:58.387Z,3.00
2023-03-15T06:44:33.427Z,3.00
2023-03-15T06:47:14.491Z,3.10
2023-03-15T06:49:50.946Z,3.10
2023-03-15T06:52:27.993Z,3.10
2023-03-15T06:55:00.762Z,3.10
2023-03-15T06:57:40.171Z,3.10
2023-03-15T07:00:20.002Z,3.20
2023-03-15T07:02:55.562Z,3.20
2023-03-15T07:05:28.612Z,3.20
2023-03-15T07:08:01.517Z,3.30
2023-03-15T07:10:34.375Z,3.30
2023-03-15T07:13:07.470Z,3.30
2023-03-15T07:15:40.376Z,3.30
2023-03-15T07:18:16.909Z,3.30
2023-03-15T07:21:01.024Z,3.30
2023-03-15T07:23:35.020Z,3.30
2023-03-15T07:26:11.168Z,3.30
2023-03-15T07:28:44.727Z,3.30
2023-03-15T07:31:17.892Z,3.30
2023-03-15T07:33:50.712Z,3.30
2023-03-15T07:36:24.230Z,3.30
2023-03-15T07:38:59.717Z,3.30
2023-03-15T07:41:32.751Z,3.30
2023-03-15T07:44:23.619Z,3.30
2023-03-15T07:47:05.355Z,3.30
2023-03-15T07:49:38.186Z,3.40
2023-03-15T07:52:11.641Z,3.40
2023-03-15T07:54:44.396Z,3.40
2023-03-15T07:57:17.267Z,3.50
2023-03-15T07:59:50.103Z,3.50
2023-03-15T08:02:22.831Z,3.60
2023-03-15T08:04:57.773Z,3.70
2023-03-15T08:07:30.984Z,3.70
2023-03-15T08:10:08.179Z,3.80
2023-03-15T08:12:43.129Z,3.90
2023-03-15T08:15:16.249Z,4.00
2023-03-15T08:17:52.005Z,4.10
2023-03-15T08:20:29.840Z,4.10
2023-03-15T08:23:06.015Z,4.20
2023-03-15T08:25:40.893Z,4.20
2023-03-15T08:28:14.082Z,4.20
2023-03-15T08:30:46.991Z,4.20
2023-03-15T08:33:22.397Z,4.30
2023-03-15T08:36:01.201Z,4.40
2023-03-15T08:38:34.604Z,4.50
2023-03-15T08:41:07.284Z,4.50
2023-03-15T08:43:40.313Z,4.50
2023-03-15T08:46:13.248Z,4.50
2023-03-15T08:48:46.457Z,4.50
2023-03-15T08:51:28.499Z,4.60
2023-03-15T08:54:04.030Z,4.60
2023-03-15T08:56:46.067Z,4.60
2023-03-15T08:59:31.474Z,4.50
2023-03-15T09:02:05.600Z,4.60
2023-03-15T09:04:39.146Z,4.70
2023-03-15T09:07:18.542Z,4.70
2023-03-15T09:09:54.225Z,4.70
2023-03-15T09:12:28.237Z,4.70
2023-03-15T09:15:01.225Z,4.70
2023-03-15T09:17:34.516Z,4.70
2023-03-15T09:20:18.655Z,4.80
2023-03-15T09:22:56.292Z,4.90
2023-03-15T09:25:31.797Z,5.10
2023-03-15T09:28:06.938Z,5.20
2023-03-15T09:30:48.288Z,5.40
2023-03-15T09:33:25.001Z,5.60
2023-03-15T09:35:57.939Z,5.70
2023-03-15T09:38:31.068Z,5.70
2023-03-15T09:41:03.878Z,5.70
2023-03-15T09:43:54.587Z,5.80
2023-03-15T09:46:33.882Z,5.80
2023-03-15T09:49:52.063Z,5.80
2023-03-15T09:52:34.789Z,6.00
2023-03-15T09:55:19.837Z,6.20
2023-03-15T09:57:55.705Z,6.40
2023-03-15T10:00:42.946Z,6.50
2023-03-15T10:03:35.825Z,6.60
2023-03-15T10:06:20.721Z,6.60
2023-03-15T10:08:59.076Z,6.80
2023-03-15T10:12:01.511Z,7.00
2023-03-15T10:14:55.500Z,7.20
2023-03-15T10:17:35.396Z,7.20
2023-03-15T10:20:25.238Z,7.20
2023-03-15T10:23:20.521Z,7.20
2023-03-15T10:25:54.434Z,7.00
2023-03-15T10:28:34.816Z,7.00
2023-03-15T10:31:32.968Z,7.00
2023-03-15T10:34:16.935Z,7.00
2023-03-15T10:36:55.016Z,7.00
2023-03-15T10:39:27.754Z,7.30
2023-03-15T10:42:00.916Z,7.50
2023-03-15T10:44:36.894Z,7.70
2023-03-15T10:47:23.013Z,7.80
2023-03-15T10:49:58.570Z,8.10
2023-03-15T10:52:38.652Z,8.40
2023-03-15T10:55:17.151Z,8.40
2023-03-15T10:57:56.143Z,8.20
2023-03-15T11:00:36.625Z,8.10
2023-03-15T11:03:21.537Z,7.90
2023-03-15T11:05:57.077Z,8.10
2023-03-15T11:08:41.400Z,8.20
2023-03-15T11:11:14.048Z,8.20
2023-03-15T11:14:00.498Z,8.10
2023-03-15T11:16:38.134Z,7.90
2023-03-15T11:19:18.436Z,8.00
2023-03-15T11:21:51.703Z,8.10
2023-03-15T11:24:30.549Z,8.20
2023-03-15T11:27:11.792Z,8.50
2023-03-15T11:29:49.459Z,8.70
2023-03-15T11:32:28.903Z,8.70
2023-03-15T11:35:17.694Z,8.90
2023-03-15T11:38:03.099Z,9.50
2023-03-15T11:40:54.003Z,10.10
2023-03-15T11:43:37.711Z,10.90
2023-03-15T11:46:21.092Z,11.30
2023-03-15T11:49:02.509Z,11.10
2023-03-15T11:51:36.407Z,11.00
2023-03-15T11:54:13.840Z,10.80
2023-03-15T11:56:51.917Z,10.60
2023-03-15T11:59:28.570Z,10.40
2023-03-15T12:02:27.568Z,10.20
2023-03-15T12:05:06.397Z,10.00
2023-03-15T12:08:17.176Z,9.60
2023-03-15T12:10:50.621Z,9.60
2023-03-15T12:13:29.061Z,9.50
2023-03-15T12:16:05.628Z,9.30
2023-03-15T12:18:45.455Z,9.70
2023-03-15T12:21:33.649Z,9.90
2023-03-15T12:24:14.257Z,10.20
2023-03-15T12:26:49.168Z,10.20
2023-03-15T12:29:30.068Z,10.30
2023-03-15T12:32:02.712Z,10.60
2023-03-15T12:34:47.023Z,11.00
2023-03-15T12:37:31.487Z,11.40
2023-03-15T12:40:16.688Z,11.50
2023-03-15T12:42:49.348Z,11.80
2023-03-15T12:45:37.260Z,11.90
2023-03-15T12:48:13.702Z,11.60
2023-03-15T12:50:47.831Z,11.70
2023-03-15T12:53:40.003Z,12.20
2023-03-15T12:56:18.899Z,12.60
2023-03-15T12:59:02.272Z,12.80
2023-03-15T13:01:35.122Z,12.90
2023-03-15T13:04:11.052Z,13.50
2023-03-15T13:06:55.043Z,14.00
2023-03-15T13:09:36.682Z,14.30
2023-03-15T13:12:23.052Z,14.30
2023-03-15T13:15:09.431Z,14.10
2023-03-15T13:17:50.467Z,13.50
2023-03-15T13:20:55.246Z,12.70
2023-03-15T13:23:29.891Z,12.10
2023-03-15T13:26:08.613Z,11.40
2023-03-15T13:29:00.138Z,10.90
2023-03-15T13:31:33.949Z,10.50
2023-03-15T13:34:22.459Z,10.00
2023-03-15T13:36:57.274Z,9.80
2023-03-15T13:39:32.973Z,9.60
2023-03-15T13:42:17.419Z,9.50
2023-03-15T13:45:08.932Z,9.40
2023-03-15T13:47:43.390Z,9.30
2023-03-15T13:50:20.767Z,9.20
2023-03-15T13:52:55.617Z,9.20
2023-03-15T13:55:33.775Z,9.20
2023-03-15T13:58:08.865Z,9.20
2023-03-15T14:00:41.717Z,9.10
2023-03-15T14:03:22.348Z,9.00
2023-03-15T14:05:56.721Z,9.00
2023-03-15T14:08:31.755Z,8.90
2023-03-15T14:11:24.688Z,9.00
2023-03-15T14:14:02.362Z,9.10
2023-03-15T14:17:01.199Z,9.20
2023-03-15T14:19:36.873Z,9.20
2023-03-15T14:22:19.071Z,9.30
2023-03-15T14:24:52.670Z,9.30
2023-03-15T14:27:30.293Z,9.30
2023-03-15T14:30:04.015Z,9.30
2023-03-15T14:32:38.836Z,9.20
2023-03-15T14:35:32.747Z,9.20
2023-03-15T14:38:26.746Z,9.20
2023-03-15T14:41:17.423Z,9.10
2023-03-15T14:43:50.100Z,9.10
2023-03-15T14:46:23.127Z,9.00
2023-03-15T14:48:56.140Z,9.00
2023-03-15T14:51:29.597Z,9.00
2023-03-15T14:54:02.546Z,9.00
2023-03-15T14:56:37.050Z,9.00
2023-03-15T14:59:20.669Z,9.00
2023-03-15T15:01:56.676Z,9.00
2023-03-15T15:04:33.564Z,8.90
2023-03-15T15:07:06.309Z,8.80
2023-03-15T15:09:43.761Z,8.90
2023-03-15T15:12:18.422Z,8.80
2023-03-15T15:14:51.165Z,8.80
2023-03-15T15:17:23.836Z,8.80
2023-03-15T15:19:56.522Z,8.80
2023-03-15T15:22:29.602Z,8.80
2023-03-15T15:25:06.469Z,8.90
2023-03-15T15:27:39.155Z,8.90
2023-03-15T15:30:16.382Z,8.90
2023-03-15T15:32:49.602Z,8.90
2023-03-15T15:35:22.751Z,8.90
2023-03-15T15:37:56.015Z,8.90
2023-03-15T15:40:32.009Z,8.90
2023-03-15T15:43:05.829Z,8.80
2023-03-15T15:45:38.992Z,8.70
2023-03-15T15:48:11.701Z,8.60
2023-03-15T15:50:44.412Z,8.50
2023-03-15T15:53:17.910Z,8.50
2023-03-15T15:55:50.770Z,8.30
2023-03-15T15:58:23.508Z,8.30
2023-03-15T16:00:56.442Z,8.20
2023-03-15T16:03:29.275Z,8.20
2023-03-15T16:06:02.068Z,8.10
2023-03-15T16:08:38.291Z,8.10
2023-03-15T16:11:12.851Z,8.10
2023-03-15T16:13:49.109Z,8.10
2023-03-15T16:16:22.599Z,8.10
2023-03-15T16:18:55.324Z,8.10
2023-03-15T16:21:41.030Z,8.10
2023-03-15T16:24:29.060Z,8.00
2023-03-15T16:27:04.187Z,8.00
2023-03-15T16:29:47.880Z,8.00
2023-03-15T16:32:36.753Z,7.90
2023-03-15T16:35:17.259Z,7.90
2023-03-15T16:37:56.172Z,7.90
2023-03-15T16:40:31.725Z,7.80
2023-03-15T16:43:06.213Z,7.80
2023-03-15T16:45:39.203Z,7.80
2023-03-15T16:48:12.700Z,7.80
2023-03-15T16:50:45.806Z,7.70
2023-03-15T16:53:19.357Z,7.70
2023-03-15T16:55:52.058Z,7.60
2023-03-15T16:58:24.897Z,7.60
2023-03-15T17:00:57.623Z,7.60
2023-03-15T17:03:31.209Z,7.60
2023-03-15T17:06:04.116Z,7.60
2023-03-15T17:08:37.039Z,7.60
2023-03-15T17:11:10.061Z,7.60
2023-03-15T17:13:42.893Z,7.60
2023-03-15T17:16:16.442Z,7.50
2023-03-15T17:18:49.430Z,7.50
2023-03-15T17:21:25.229Z,7.50
2023-03-15T17:23:57.952Z,7.40
2023-03-15T17:26:34.328Z,7.30
2023-03-15T17:29:07.544Z,7.20
2023-03-15T17:31:40.441Z,7.20
2023-03-15T17:34:13.143Z,7.20
2023-03-15T17:36:45.912Z,7.20
2023-03-15T17:39:18.605Z,7.20
2023-03-15T17:41:51.406Z,7.20
2023-03-15T17:44:24.072Z,7.20
2023-03-15T17:46:56.863Z,7.10
2023-03-15T17:49:29.699Z,7.10
2023-03-15T17:52:03.835Z,7.00
2023-03-15T17:54:36.508Z,7.00
2023-03-15T17:57:12.576Z,7.00
2023-03-15T17:59:45.343Z,7.00
2023-03-15T18:02:18.088Z,7.00
2023-03-15T18:04:50.754Z,6.90
2023-03-15T18:07:26.075Z,6.90
2023-03-15T18:09:59.757Z,6.90
2023-03-15T18:12:32.790Z,6.80
2023-03-15T18:15:05.848Z,6.80
2023-03-15T18:17:38.694Z,6.90
2023-03-15T18:20:13.128Z,6.80
2023-03-15T18:22:45.806Z,6.80
2023-03-15T18:25:27.634Z,6.80
2023-03-15T18:28:00.792Z,6.70
2023-03-15T18:30:34.109Z,6.70
2023-03-15T18:33:07.227Z,6.60
2023-03-15T18:35:40.193Z,6.60
2023-03-15T18:38:13.152Z,6.60
2023-03-15T18:40:45.925Z,6.60
2023-03-15T18:43:18.851Z,6.50
2023-03-15T18:45:51.636Z,6.50
2023-03-15T18:48:39.789Z,6.50
2023-03-15T18:51:14.221Z,6.40
2023-03-15T18:53:47.032Z,6.30
2023-03-15T18:56:22.321Z,6.30
2023-03-15T18:58:55.190Z,6.30
2023-03-15T19:01:28.113Z,6.30
2023-03-15T19:04:00.978Z,6.30
2023-03-15T19:06:33.802Z,6.30
2023-03-15T19:09:06.537Z,6.30
2023-03-15T19:11:41.632Z,6.30
2023-03-15T19:14:14.366Z,6.20
2023-03-15T19:16:47.127Z,6.20
2023-03-15T19:19:19.983Z,6.20
2023-03-15T19:21:52.842Z,6.20
2023-03-15T19:24:25.523Z,6.10
2023-03-15T19:26:58.193Z,6.10
2023-03-15T19:29:30.911Z,6.10
2023-03-15T19:32:04.007Z,6.00
2023-03-15T19:34:36.646Z,6.00
2023-03-15T19:37:09.421Z,6.00
2023-03-15T19:39:42.345Z,5.90
2023-03-15T19:42:15.618Z,5.90
2023-03-15T19:44:48.437Z,5.90
2023-03-15T19:47:21.111Z,5.90
2023-03-15T19:49:54.936Z,5.80
2023-03-15T19:52:29.090Z,5.80
2023-03-15T19:55:01.893Z,5.80
2023-03-15T19:57:34.661Z,5.80
2023-03-15T20:00:12.411Z,5.80
2023-03-15T20:02:45.861Z,5.80
2023-03-15T20:05:20.334Z,5.80
2023-03-15T20:07:54.176Z,5.80
2023-03-15T20:10:26.991Z,5.80
2023-03-15T20:12:59.666Z,5.70
2023-03-15T20:15:32.343Z,5.70
2023-03-15T20:18:07.984Z,5.70
2023-03-15T20:20:40.740Z,5.70
2023-03-15T20:23:14.432Z,5.60
2023-03-15T20:25:47.378Z,5.50
2023-03-15T20:28:20.090Z,5.50
2023-03-15T20:30:52.948Z,5.40
2023-03-15T20:33:28.422Z,5.30
2023-03-15T20:36:01.995Z,5.30
2023-03-15T20:38:37.343Z,5.30
2023-03-15T20:41:13.967Z,5.30
2023-03-15T20:43:54.198Z,5.30
2023-03-15T20:46:40.781Z,5.30
2023-03-15T20:49:17.088Z,5.30
2023-03-15T20:51:56.152Z,5.30
2023-03-15T20:54:34.373Z,5.40
2023-03-15T20:57:13.182Z,5.30
2023-03-15T20:59:47.343Z,5.30
2023-03-15T21:02:23.937Z,5.30
2023-03-15T21:05:02.455Z,5.20
2023-03-15T21:07:36.276Z,5.20
2023-03-15T21:10:10.787Z,5.10
2023-03-15T21:12:46.663Z,5.10
2023-03-15T21:15:22.603Z,5.00
2023-03-15T21:17:57.738Z,5.00
2023-03-15T21:20:39.315Z,4.90
2023-03-15T21:23:12.818Z,4.90
2023-03-15T21:25:59.156Z,4.90
2023-03-15T21:28:33.245Z,4.80
2023-03-15T21:31:10.453Z,4.80
2023-03-15T21:33:50.782Z,4.80
2023-03-15T21:36:24.274Z,4.80
2023-03-15T21:39:06.547Z,4.80
2023-03-15T21:41:43.785Z,4.80
2023-03-15T21:44:23.887Z,4.80
2023-03-15T21:46:59.650Z,4.70
2023-03-15T21:49:32.938Z,4.70
2023-03-15T21:52:06.077Z,4.60
2023-03-15T21:54:42.240Z,4.60
2023-03-15T21:57:15.435Z,4.60
2023-03-15T21:59:53.754Z,4.60
2023-03-15T22:02:30.017Z,4.50
2023-03-15T22:05:03.459Z,4.60
2023-03-15T22:07:36.824Z,4.50
2023-03-15T22:10:15.637Z,4.50
2023-03-15T22:12:49.008Z,4.50
2023-03-15T22:15:23.874Z,4.50
2023-03-15T22:17:57.573Z,4.50
2023-03-15T22:20:33.636Z,4.40
2023-03-15T22:23:07.543Z,4.40
2023-03-15T22:25:41.246Z,4.40
2023-03-15T22:28:17.938Z,4.30
2023-03-15T22:30:52.523Z,4.30
2023-03-15T22:33:26.351Z,4.30
2023-03-15T22:35:59.931Z,4.30
2023-03-15T22:38:37.835Z,4.30
2023-03-15T22:41:14.327Z,4.30
2023-03-15T22:43:47.727Z,4.30
2023-03-15T22:46:21.554Z,4.30
2023-03-15T22:49:00.460Z,4.40
2023-03-15T22:51:35.498Z,4.30
2023-03-15T22:54:09.695Z,4.30
2023-03-15T22:56:46.356Z,4.30
2023-03-15T22:59:19.804Z,4.30
2023-03-15T23:01:56.776Z,4.30
2023-03-15T23:04:36.124Z,4.30
2023-03-15T23:07:16.518Z,4.30
2023-03-15T23:09:49.926Z,4.30
2023-03-15T23:12:35.890Z,4.30
2023-03-15T23:15:12.072Z,4.30
2023-03-15T23:17:55.893Z,4.30
2023-03-15T23:20:33.492Z,4.20
2023-03-15T23:23:09.248Z,4.20
2023-03-15T23:25:43.185Z,4.20
2023-03-15T23:28:18.005Z,4.20
2023-03-15T23:30:51.600Z,4.20
2023-03-15T23:33:25.504Z,4.20
2023-03-15T23:35:58.959Z,4.10
2023-03-15T23:38:35.894Z,4.10
2023-03-15T23:41:14.555Z,4.10
2023-03-15T23:43:47.804Z,4.10
2023-03-15T23:46:23.759Z,4.10
2023-03-15T23:48:57.173Z,4.10
2023-03-15T23:51:33.427Z,4.10
2023-03-15T23:54:06.725Z,4.10
2023-03-15T23:56:40.634Z,4.00
2023-03-15T23:59:14.291Z,4.00
